Time;durP1;ratioP1;P1;durP2;ratioP2;P2;SDS_P1;SDS_P2;PMS_P1;PMS_P2;Temp;Humidity;BMP_temperature;BMP_pressure;BME280_temperature;BME280_humidity;BME280_pressure;Samples;Min_cycle;Max_cycle;Signal;HPM_P1;HPM_P2
2023/05/18 00:01:39;;;;;;;;;;;20.40;41.70;;;;;;5080140;28;19920;-61
2023/05/18 00:04:09;;;;;;;;;;;20.40;41.70;;;;;;5098089;28;19989;-61
2023/05/18 00:06:36;;;;;;;;;;;20.40;41.70;;;;;;5098374;28;19924;-61
2023/05/18 00:09:03;;;;;;;;;;;20.40;41.70;;;;;;5080015;28;19924;-60
2023/05/18 00:11:32;;;;;;;;;;;20.40;41.70;;;;;;5099645;28;19920;-61
2023/05/18 00:13:59;;;;;;;;;;;20.40;41.70;;;;;;5067714;28;19924;-61
2023/05/18 00:16:25;;;;;;;;;;;20.40;41.70;;;;;;5078562;28;20007;-61
2023/05/18 00:18:53;;;;;;;;;;;20.40;41.70;;;;;;5087252;28;20375;-61
2023/05/18 00:21:21;;;;;;;;;;;20.40;41.70;;;;;;5077026;28;20403;-61
2023/05/18 00:23:49;;;;;;;;;;;20.40;42.30;;;;;;5078396;28;19926;-61
2023/05/18 00:26:16;;;;;;;;;;;20.40;41.70;;;;;;5078474;28;20382;-61
2023/05/18 00:28:45;;;;;;;;;;;20.40;41.70;;;;;;5078522;28;19920;-61
2023/05/18 00:31:12;;;;;;;;;;;20.40;41.70;;;;;;5095558;28;19920;-61
2023/05/18 00:33:39;;;;;;;;;;;20.40;41.70;;;;;;5096597;28;19920;-61
2023/05/18 00:36:09;;;;;;;;;;;20.40;41.70;;;;;;5095970;28;19920;-61
2023/05/18 00:38:35;;;;;;;;;;;20.40;41.80;;;;;;5078925;28;19920;-61
2023/05/18 00:41:02;;;;;;;;;;;20.40;41.70;;;;;;5095572;28;19920;-61
2023/05/18 00:43:29;;;;;;;;;;;20.40;41.70;;;;;;5074439;28;19924;-61
2023/05/18 00:45:57;;;;;;;;;;;20.40;41.70;;;;;;5085844;28;19974;-61
2023/05/18 00:48:24;;;;;;;;;;;20.40;41.70;;;;;;5072807;28;19923;-61
2023/05/18 00:50:51;;;;;;;;;;;20.40;41.70;;;;;;5075410;28;19920;-61
2023/05/18 00:53:20;;;;;;;;;;;20.40;41.80;;;;;;5071199;28;19920;-60
2023/05/18 00:55:47;;;;;;;;;;;20.40;41.80;;;;;;5092058;28;19951;-61
2023/05/18 00:58:14;;;;;;;;;;;20.40;41.80;;;;;;5074043;28;19924;-61
2023/05/18 01:00:40;;;;;;;;;;;20.40;41.80;;;;;;5091607;28;19919;-61
2023/05/18 01:03:14;;;;;;;;;;;20.40;41.80;;;;;;5073136;28;20324;-60
2023/05/18 01:05:41;;;;;;;;;;;20.40;41.80;;;;;;5078496;28;20028;-61
2023/05/18 01:08:08;;;;;;;;;;;20.40;41.80;;;;;;5073725;28;19963;-61
2023/05/18 01:10:36;;;;;;;;;;;20.40;41.80;;;;;;5093618;28;19973;-61
2023/05/18 01:13:05;;;;;;;;;;;20.40;41.80;;;;;;5073975;28;19956;-61
2023/05/18 01:15:32;;;;;;;;;;;20.40;41.80;;;;;;5091077;28;19930;-60
2023/05/18 01:18:03;;;;;;;;;;;20.40;41.80;;;;;;5071808;28;19920;-61
2023/05/18 01:20:36;;;;;;;;;;;20.40;41.80;;;;;;5088575;28;19955;-61
2023/05/18 01:23:08;;;;;;;;;;;20.40;41.80;;;;;;5074052;28;19928;-61
2023/05/18 01:25:40;;;;;;;;;;;20.40;41.80;;;;;;5095490;28;19920;-61
2023/05/18 01:28:09;;;;;;;;;;;20.40;41.80;;;;;;5077121;28;20020;-61
2023/05/18 01:30:38;;;;;;;;;;;20.40;41.80;;;;;;5077375;28;19920;-60
2023/05/18 01:33:07;;;;;;;;;;;20.40;41.80;;;;;;5075722;28;19981;-58
2023/05/18 01:35:33;;;;;;;;;;;20.40;41.80;;;;;;5077160;28;19928;-62
2023/05/18 01:38:00;;;;;;;;;;;20.40;41.80;;;;;;5077942;28;20269;-62
2023/05/18 01:40:29;;;;;;;;;;;20.40;41.80;;;;;;5076930;28;19927;-59
2023/05/18 01:42:57;;;;;;;;;;;20.40;41.80;;;;;;5076789;28;19931;-61
2023/05/18 01:45:26;;;;;;;;;;;20.40;41.80;;;;;;5092142;28;19931;-60
2023/05/18 01:47:53;;;;;;;;;;;20.40;42.40;;;;;;5077108;28;19920;-61
2023/05/18 01:50:21;;;;;;;;;;;20.40;41.80;;;;;;5075278;28;19920;-61
2023/05/18 01:52:50;;;;;;;;;;;20.40;41.90;;;;;;5093614;28;19969;-60
2023/05/18 01:55:17;;;;;;;;;;;20.50;41.90;;;;;;5076999;28;19966;-61
2023/05/18 01:57:44;;;;;;;;;;;20.40;41.80;;;;;;5074522;28;20370;-60
2023/05/18 02:00:11;;;;;;;;;;;20.50;41.90;;;;;;5094929;28;19920;-61
2023/05/18 02:02:40;;;;;;;;;;;20.40;41.80;;;;;;5074787;28;19928;-60
2023/05/18 02:05:11;;;;;;;;;;;20.40;41.90;;;;;;5094672;28;19927;-61
2023/05/18 02:07:37;;;;;;;;;;;20.40;41.90;;;;;;5076465;28;19968;-60
2023/05/18 02:10:04;;;;;;;;;;;20.40;41.90;;;;;;5074838;28;19924;-61
2023/05/18 02:12:31;;;;;;;;;;;20.40;41.80;;;;;;5094954;28;19920;-61
2023/05/18 02:14:59;;;;;;;;;;;20.40;41.80;;;;;;5076800;28;19920;-60
2023/05/18 02:17:27;;;;;;;;;;;20.40;41.90;;;;;;5077171;28;19920;-60
2023/05/18 02:19:55;;;;;;;;;;;20.40;41.90;;;;;;5076466;28;19924;-61
2023/05/18 02:22:22;;;;;;;;;;;20.50;41.90;;;;;;5076667;28;19927;-61
2023/05/18 02:24:49;;;;;;;;;;;20.50;41.90;;;;;;5092746;28;20330;-61
2023/05/18 02:27:16;;;;;;;;;;;20.50;41.90;;;;;;5074310;28;19927;-61
2023/05/18 02:29:42;;;;;;;;;;;20.50;41.90;;;;;;5076439;28;20412;-61
2023/05/18 02:32:11;;;;;;;;;;;20.40;41.90;;;;;;5093070;28;19924;-60
2023/05/18 02:34:40;;;;;;;;;;;20.50;42.00;;;;;;5094392;28;19939;-60
2023/05/18 02:37:09;;;;;;;;;;;20.40;41.90;;;;;;5076629;28;19927;-61
2023/05/18 02:39:36;;;;;;;;;;;20.40;41.90;;;;;;5090747;28;19920;-61
2023/05/18 02:42:02;;;;;;;;;;;20.50;42.00;;;;;;5074234;28;19920;-61
2023/05/18 02:44:29;;;;;;;;;;;20.40;41.90;;;;;;5074275;28;19924;-61
2023/05/18 02:46:56;;;;;;;;;;;20.50;42.00;;;;;;5076972;28;19989;-61
2023/05/18 02:49:23;;;;;;;;;;;20.50;42.00;;;;;;5094219;28;19962;-60
2023/05/18 02:51:50;;;;;;;;;;;20.40;41.90;;;;;;5076266;28;19923;-60
2023/05/18 02:54:18;;;;;;;;;;;20.40;41.90;;;;;;5093636;28;19969;-61
2023/05/18 02:56:44;;;;;;;;;;;20.50;42.00;;;;;;5074291;28;19931;-61
2023/05/18 02:59:11;;;;;;;;;;;20.40;41.90;;;;;;5076275;28;19924;-61
2023/05/18 03:01:39;;;;;;;;;;;20.50;42.00;;;;;;5076772;28;20011;-61
2023/05/18 03:04:06;;;;;;;;;;;20.50;42.00;;;;;;5074698;28;19936;-63
2023/05/18 03:06:34;;;;;;;;;;;20.40;41.90;;;;;;5090261;28;19920;-61
2023/05/18 03:09:01;;;;;;;;;;;20.40;41.90;;;;;;5093855;28;19924;-61
2023/05/18 03:11:30;;;;;;;;;;;20.50;42.00;;;;;;5094320;28;19920;-61
2023/05/18 03:13:57;;;;;;;;;;;20.50;42.00;;;;;;5093443;28;19931;-61
2023/05/18 03:16:27;;;;;;;;;;;20.40;41.90;;;;;;5093188;28;19925;-61
2023/05/18 03:18:53;;;;;;;;;;;20.50;42.00;;;;;;5091117;28;19927;-61
2023/05/18 03:21:20;;;;;;;;;;;20.50;42.00;;;;;;5090909;28;19920;-61
2023/05/18 03:23:47;;;;;;;;;;;20.50;42.00;;;;;;5076139;28;19920;-61
2023/05/18 03:26:15;;;;;;;;;;;20.50;42.00;;;;;;5073972;28;19924;-61
2023/05/18 03:28:45;;;;;;;;;;;20.40;41.90;;;;;;5086314;28;19920;-61
2023/05/18 03:31:12;;;;;;;;;;;20.50;42.10;;;;;;5059043;28;20274;-61
2023/05/18 03:33:38;;;;;;;;;;;20.50;42.00;;;;;;5073883;28;20020;-61
2023/05/18 03:36:06;;;;;;;;;;;20.50;42.10;;;;;;5093020;28;19930;-61
2023/05/18 03:38:32;;;;;;;;;;;20.50;42.00;;;;;;5092688;28;19924;-61
2023/05/18 03:40:59;;;;;;;;;;;20.50;42.00;;;;;;5076589;28;19924;-61
2023/05/18 03:43:28;;;;;;;;;;;20.50;42.00;;;;;;5073598;28;19924;-61
2023/05/18 03:45:56;;;;;;;;;;;20.50;42.10;;;;;;5088534;28;19920;-61
2023/05/18 03:48:24;;;;;;;;;;;20.50;42.10;;;;;;5075904;28;20034;-61
2023/05/18 03:50:51;;;;;;;;;;;20.50;42.10;;;;;;5073220;28;20394;-61
2023/05/18 03:53:20;;;;;;;;;;;20.50;42.10;;;;;;5079288;28;19972;-61
2023/05/18 03:55:48;;;;;;;;;;;20.40;41.90;;;;;;5078337;28;20032;-61
2023/05/18 03:58:14;;;;;;;;;;;20.50;42.10;;;;;;5075861;28;19920;-61
2023/05/18 04:00:42;;;;;;;;;;;20.50;42.10;;;;;;5093650;28;19924;-61
2023/05/18 04:03:11;;;;;;;;;;;20.50;42.10;;;;;;5093235;28;19920;-61
2023/05/18 04:05:38;;;;;;;;;;;20.50;42.10;;;;;;5093287;28;19973;-61
2023/05/18 04:08:06;;;;;;;;;;;20.50;42.10;;;;;;5093255;28;19966;-61
2023/05/18 04:10:36;;;;;;;;;;;20.50;42.10;;;;;;5075705;28;19920;-61
2023/05/18 04:13:02;;;;;;;;;;;20.50;42.10;;;;;;5075083;28;19970;-61
2023/05/18 04:15:32;;;;;;;;;;;20.50;42.10;;;;;;5075898;28;19920;-61
2023/05/18 04:18:00;;;;;;;;;;;20.50;42.10;;;;;;5093607;28;19920;-61
2023/05/18 04:20:34;;;;;;;;;;;20.50;42.10;;;;;;5075738;28;20265;-61
2023/05/18 04:23:02;;;;;;;;;;;20.50;42.10;;;;;;5073343;28;19928;-61
2023/05/18 04:25:29;;;;;;;;;;;20.50;42.10;;;;;;5075540;28;19920;-61
2023/05/18 04:27:55;;;;;;;;;;;20.50;42.10;;;;;;5092963;28;19920;-62
2023/05/18 04:30:23;;;;;;;;;;;20.50;42.10;;;;;;5094421;28;19927;-61
2023/05/18 04:32:49;;;;;;;;;;;20.50;42.10;;;;;;5090373;28;20349;-60
2023/05/18 04:35:17;;;;;;;;;;;20.50;42.10;;;;;;5092529;28;19988;-61
2023/05/18 04:37:45;;;;;;;;;;;20.50;42.10;;;;;;5091908;28;20358;-61
2023/05/18 04:40:15;;;;;;;;;;;20.50;42.10;;;;;;5093377;28;19920;-61
2023/05/18 04:42:44;;;;;;;;;;;20.50;42.10;;;;;;5094768;28;19920;-61
2023/05/18 04:45:16;;;;;;;;;;;20.50;42.10;;;;;;5094179;28;19931;-61
2023/05/18 04:47:45;;;;;;;;;;;20.50;42.10;;;;;;5093046;28;20263;-61
2023/05/18 04:50:13;;;;;;;;;;;20.50;42.10;;;;;;5075678;28;19930;-60
2023/05/18 04:52:40;;;;;;;;;;;20.50;42.70;;;;;;5076372;28;19927;-60
2023/05/18 04:55:12;;;;;;;;;;;20.50;42.10;;;;;;5078240;28;20027;-60
2023/05/18 04:57:41;;;;;;;;;;;20.50;42.20;;;;;;5078537;28;19920;-60
2023/05/18 05:00:08;;;;;;;;;;;20.50;42.10;;;;;;5096018;28;19920;-60
2023/05/18 05:02:35;;;;;;;;;;;20.50;42.10;;;;;;5074116;28;20293;-60
2023/05/18 05:05:02;;;;;;;;;;;20.50;42.10;;;;;;5092970;28;19920;-60
2023/05/18 05:07:28;;;;;;;;;;;20.50;42.20;;;;;;5077868;28;19978;-61
2023/05/18 05:09:55;;;;;;;;;;;20.50;42.10;;;;;;5078351;28;19920;-60
2023/05/18 05:12:23;;;;;;;;;;;20.50;42.20;;;;;;5078621;28;19923;-60
2023/05/18 05:14:50;;;;;;;;;;;20.50;42.20;;;;;;5094266;28;20339;-61
2023/05/18 05:17:17;;;;;;;;;;;20.50;42.20;;;;;;5077697;28;19924;-61
2023/05/18 05:19:44;;;;;;;;;;;20.50;42.20;;;;;;5076207;28;19942;-63
2023/05/18 05:22:11;;;;;;;;;;;20.50;42.20;;;;;;5076081;28;19931;-62
2023/05/18 05:24:37;;;;;;;;;;;20.50;42.20;;;;;;5095658;28;20270;-62
2023/05/18 05:27:04;;;;;;;;;;;20.50;42.20;;;;;;5093985;28;19927;-62
2023/05/18 05:29:33;;;;;;;;;;;20.50;42.90;;;;;;5093288;28;20369;-62
2023/05/18 05:31:59;;;;;;;;;;;20.50;42.20;;;;;;5077379;28;20278;-62
2023/05/18 05:34:26;;;;;;;;;;;20.50;42.20;;;;;;5077395;28;19920;-62
2023/05/18 05:36:53;;;;;;;;;;;20.50;42.20;;;;;;5075694;28;19924;-62
2023/05/18 05:39:21;;;;;;;;;;;20.50;42.20;;;;;;5090226;28;19920;-62
2023/05/18 05:41:47;;;;;;;;;;;20.50;42.20;;;;;;5077117;28;20374;-62
2023/05/18 05:44:14;;;;;;;;;;;20.50;42.20;;;;;;5077318;28;19920;-62
2023/05/18 05:46:44;;;;;;;;;;;20.50;42.20;;;;;;5094463;28;19924;-63
2023/05/18 05:49:11;;;;;;;;;;;20.50;42.20;;;;;;5077836;28;19995;-63
2023/05/18 05:51:38;;;;;;;;;;;20.50;42.20;;;;;;5094095;28;19921;-62
2023/05/18 05:54:06;;;;;;;;;;;20.50;42.20;;;;;;5093097;28;19927;-61
2023/05/18 05:56:32;;;;;;;;;;;20.50;42.20;;;;;;5076355;28;19920;-61
2023/05/18 05:58:59;;;;;;;;;;;20.50;42.20;;;;;;5075271;28;19927;-61
2023/05/18 06:01:26;;;;;;;;;;;20.50;42.30;;;;;;5084828;28;19966;-64
2023/05/18 06:03:54;;;;;;;;;;;20.50;42.30;;;;;;5092501;28;19989;-61
2023/05/18 06:06:22;;;;;;;;;;;20.50;42.40;;;;;;5072312;28;19972;-62
2023/05/18 06:08:49;;;;;;;;;;;20.50;42.40;;;;;;5092799;28;19920;-62
2023/05/18 06:11:15;;;;;;;;;;;20.50;42.40;;;;;;5072552;28;19927;-62
2023/05/18 06:13:42;;;;;;;;;;;20.60;42.50;;;;;;5078420;28;19920;-63
2023/05/18 06:16:09;;;;;;;;;;;20.60;42.50;;;;;;5093736;28;19981;-63
2023/05/18 06:18:36;;;;;;;;;;;20.60;42.50;;;;;;5072781;28;19920;-62
2023/05/18 06:21:05;;;;;;;;;;;20.50;42.40;;;;;;5073255;28;19924;-62
2023/05/18 06:23:32;;;;;;;;;;;20.60;42.50;;;;;;5074393;28;19960;-62
2023/05/18 06:25:59;;;;;;;;;;;20.60;42.40;;;;;;5074297;28;19920;-62
2023/05/18 06:28:26;;;;;;;;;;;20.60;42.50;;;;;;5112973;28;19920;-62
2023/05/18 06:30:52;;;;;;;;;;;20.60;42.40;;;;;;5093688;28;19968;-62
2023/05/18 06:33:20;;;;;;;;;;;20.60;42.50;;;;;;5092975;28;19920;-62
2023/05/18 06:35:46;;;;;;;;;;;20.60;42.40;;;;;;5090990;28;19926;-62
2023/05/18 06:38:15;;;;;;;;;;;20.60;42.50;;;;;;5110619;28;20348;-62
2023/05/18 06:40:41;;;;;;;;;;;20.60;42.50;;;;;;5091126;28;19920;-62
2023/05/18 06:43:08;;;;;;;;;;;20.50;42.40;;;;;;5092163;28;19920;-62
2023/05/18 06:45:35;;;;;;;;;;;20.60;42.40;;;;;;5093742;28;19965;-63
2023/05/18 06:48:02;;;;;;;;;;;20.60;42.40;;;;;;5073938;28;19967;-62
2023/05/18 06:50:28;;;;;;;;;;;20.60;43.00;;;;;;5089689;28;19966;-62
2023/05/18 06:52:57;;;;;;;;;;;20.60;42.40;;;;;;5092874;28;19982;-62
2023/05/18 06:55:25;;;;;;;;;;;20.60;42.40;;;;;;5074451;28;20018;-61
2023/05/18 06:57:55;;;;;;;;;;;20.60;42.50;;;;;;5073279;28;20033;-62
2023/05/18 07:00:22;;;;;;;;;;;20.60;42.50;;;;;;5057042;28;19920;-62
2023/05/18 07:02:49;;;;;;;;;;;20.60;42.50;;;;;;5075505;28;19973;-61
2023/05/18 07:05:16;;;;;;;;;;;20.50;42.30;;;;;;5080950;28;19923;-62
2023/05/18 07:07:43;;;;;;;;;;;20.60;42.50;;;;;;5073981;28;19943;-62
2023/05/18 07:10:10;;;;;;;;;;;20.60;42.40;;;;;;5072773;28;19942;-62
2023/05/18 07:12:38;;;;;;;;;;;20.60;42.40;;;;;;5069690;28;20266;-62
2023/05/18 07:15:08;;;;;;;;;;;20.60;42.40;;;;;;5078539;28;19920;-61
2023/05/18 07:17:35;;;;;;;;;;;20.60;42.40;;;;;;5088572;28;19942;-62
2023/05/18 07:20:02;;;;;;;;;;;20.60;42.50;;;;;;5072150;28;20278;-62
2023/05/18 07:22:29;;;;;;;;;;;20.60;42.40;;;;;;5073021;28;19927;-62
2023/05/18 07:24:59;;;;;;;;;;;20.60;42.50;;;;;;5091202;28;19977;-62
2023/05/18 07:27:26;;;;;;;;;;;20.50;42.30;;;;;;5079306;28;19963;-62
2023/05/18 07:29:54;;;;;;;;;;;20.60;42.40;;;;;;5096845;28;19920;-62
2023/05/18 07:32:22;;;;;;;;;;;20.60;42.40;;;;;;5092692;28;19919;-61
2023/05/18 07:34:49;;;;;;;;;;;20.60;42.40;;;;;;5093227;28;19970;-62
2023/05/18 07:37:16;;;;;;;;;;;20.60;42.50;;;;;;5070326;28;19924;-61
2023/05/18 07:39:44;;;;;;;;;;;20.60;42.50;;;;;;5085432;28;19990;-62
2023/05/18 07:42:11;;;;;;;;;;;20.60;42.50;;;;;;5087363;28;19927;-61
2023/05/18 07:44:38;;;;;;;;;;;20.60;42.50;;;;;;5068930;28;19924;-62
2023/05/18 07:47:07;;;;;;;;;;;20.60;42.50;;;;;;5091982;28;20350;-63
2023/05/18 07:49:34;;;;;;;;;;;20.60;42.50;;;;;;5087365;28;19927;-62
2023/05/18 07:52:01;;;;;;;;;;;20.60;42.40;;;;;;5082652;28;19947;-62
2023/05/18 07:54:28;;;;;;;;;;;20.60;42.00;;;;;;5086693;28;19926;-62
2023/05/18 07:56:55;;;;;;;;;;;20.50;40.10;;;;;;5091293;28;19962;-62
2023/05/18 07:59:22;;;;;;;;;;;20.50;39.30;;;;;;5076536;28;19926;-62
2023/05/18 08:01:48;;;;;;;;;;;20.50;39.30;;;;;;5078643;28;19928;-62
2023/05/18 08:04:17;;;;;;;;;;;20.50;39.70;;;;;;5093346;28;20277;-62
2023/05/18 08:06:43;;;;;;;;;;;20.40;39.80;;;;;;5095756;28;19969;-61
2023/05/18 08:09:12;;;;;;;;;;;20.40;39.40;;;;;;5093477;28;19943;-62
2023/05/18 08:11:39;;;;;;;;;;;20.40;39.60;;;;;;5091997;28;19924;-62
2023/05/18 08:14:06;;;;;;;;;;;20.40;39.90;;;;;;5094175;28;19920;-59
2023/05/18 08:16:35;;;;;;;;;;;20.40;40.10;;;;;;5070431;28;19927;-61
2023/05/18 08:19:02;;;;;;;;;;;20.40;40.20;;;;;;5099388;28;19943;-61
2023/05/18 08:21:31;;;;;;;;;;;20.40;40.40;;;;;;5075976;28;19920;-63
2023/05/18 08:24:00;;;;;;;;;;;20.40;40.50;;;;;;5095381;28;19931;-63
2023/05/18 08:26:27;;;;;;;;;;;20.40;40.60;;;;;;5080082;28;19920;-63
2023/05/18 08:28:54;;;;;;;;;;;20.40;40.60;;;;;;5098755;28;20393;-62
2023/05/18 08:31:21;;;;;;;;;;;20.40;40.60;;;;;;5108478;28;19958;-62
2023/05/18 08:33:48;;;;;;;;;;;20.40;40.70;;;;;;5078548;28;19926;-62
2023/05/18 08:36:15;;;;;;;;;;;20.40;40.70;;;;;;5076011;28;19921;-61
2023/05/18 08:38:43;;;;;;;;;;;20.40;40.80;;;;;;5091060;28;19926;-62
2023/05/18 08:41:12;;;;;;;;;;;20.40;40.80;;;;;;5077263;28;19969;-63
2023/05/18 08:43:48;;;;;;;;;;;20.40;40.90;;;;;;5095970;28;19924;-62
2023/05/18 08:46:17;;;;;;;;;;;20.40;40.90;;;;;;5094741;28;19924;-62
2023/05/18 08:48:44;;;;;;;;;;;20.40;40.90;;;;;;5086766;28;19920;-62
2023/05/18 08:51:11;;;;;;;;;;;20.40;40.90;;;;;;5078689;28;20319;-62
2023/05/18 08:53:37;;;;;;;;;;;20.40;41.00;;;;;;5078162;28;19920;-63
2023/05/18 08:56:09;;;;;;;;;;;20.40;41.00;;;;;;5078335;28;20434;-63
2023/05/18 08:58:36;;;;;;;;;;;20.40;41.00;;;;;;5078460;28;20274;-63
2023/05/18 09:01:03;;;;;;;;;;;20.40;41.10;;;;;;5090921;28;20312;-62
2023/05/18 09:03:30;;;;;;;;;;;20.40;41.10;;;;;;5072329;28;19925;-62
2023/05/18 09:05:58;;;;;;;;;;;20.40;41.10;;;;;;5073157;28;19924;-62
2023/05/18 09:08:25;;;;;;;;;;;20.40;41.10;;;;;;5094736;28;19920;-62
2023/05/18 09:10:52;;;;;;;;;;;20.40;41.10;;;;;;5095141;28;19983;-62
2023/05/18 09:13:20;;;;;;;;;;;20.50;41.20;;;;;;5091241;28;19924;-62
2023/05/18 09:15:47;;;;;;;;;;;20.50;41.20;;;;;;5076222;28;20003;-62
2023/05/18 09:18:14;;;;;;;;;;;20.50;41.20;;;;;;5091000;28;19978;-63
2023/05/18 09:20:43;;;;;;;;;;;20.50;41.20;;;;;;5084594;28;20268;-62
2023/05/18 09:23:11;;;;;;;;;;;20.50;41.20;;;;;;5084480;28;19953;-63
2023/05/18 09:25:38;;;;;;;;;;;20.50;41.30;;;;;;5097890;28;19961;-62
2023/05/18 09:28:05;;;;;;;;;;;20.50;41.20;;;;;;5098583;28;20322;-62
2023/05/18 09:30:34;;;;;;;;;;;20.50;41.30;;;;;;5105448;28;20274;-62
2023/05/18 09:33:01;;;;;;;;;;;20.50;41.20;;;;;;5081118;28;19924;-62
2023/05/18 09:35:29;;;;;;;;;;;20.40;41.20;;;;;;5071887;28;19924;-63
2023/05/18 09:37:56;;;;;;;;;;;20.50;41.30;;;;;;5061703;28;19921;-62
2023/05/18 09:40:26;;;;;;;;;;;20.50;41.30;;;;;;5077099;28;19966;-62
2023/05/18 09:42:56;;;;;;;;;;;20.50;41.30;;;;;;5094546;28;20023;-62
2023/05/18 09:45:24;;;;;;;;;;;20.50;41.30;;;;;;5077839;28;19921;-62
2023/05/18 09:47:52;;;;;;;;;;;20.50;41.30;;;;;;5082326;28;20340;-62
2023/05/18 09:50:22;;;;;;;;;;;20.50;41.40;;;;;;5062747;28;19924;-63
2023/05/18 09:52:49;;;;;;;;;;;20.50;41.40;;;;;;5085945;28;19920;-61
2023/05/18 09:55:16;;;;;;;;;;;20.50;41.40;;;;;;5077059;28;19927;-63
2023/05/18 09:57:43;;;;;;;;;;;20.50;41.40;;;;;;5073542;28;19924;-62
2023/05/18 10:00:11;;;;;;;;;;;20.50;41.40;;;;;;5077048;28;19920;-62
2023/05/18 10:02:38;;;;;;;;;;;20.50;41.40;;;;;;5091241;28;19920;-62
2023/05/18 10:05:08;;;;;;;;;;;20.50;41.40;;;;;;5091425;28;19989;-62
2023/05/18 10:07:38;;;;;;;;;;;20.50;41.50;;;;;;5070088;28;19959;-62
2023/05/18 10:10:05;;;;;;;;;;;20.50;41.50;;;;;;5062950;28;19926;-62
2023/05/18 10:12:31;;;;;;;;;;;20.50;41.40;;;;;;5073370;28;19927;-62
2023/05/18 10:14:58;;;;;;;;;;;20.50;41.40;;;;;;5081842;28;19920;-62
2023/05/18 10:17:26;;;;;;;;;;;20.50;41.50;;;;;;5092177;28;20322;-62
2023/05/18 10:19:52;;;;;;;;;;;20.50;41.50;;;;;;5069421;28;19920;-62
2023/05/18 10:22:22;;;;;;;;;;;20.50;41.50;;;;;;5055288;28;19963;-62
2023/05/18 10:24:50;;;;;;;;;;;20.50;41.50;;;;;;5081088;28;19927;-62
2023/05/18 10:27:17;;;;;;;;;;;20.50;41.50;;;;;;5099210;28;19919;-62
2023/05/18 10:29:45;;;;;;;;;;;20.50;41.50;;;;;;5074427;28;19920;-62
2023/05/18 10:32:12;;;;;;;;;;;20.50;41.50;;;;;;5080577;28;20355;-62
2023/05/18 10:34:38;;;;;;;;;;;20.50;41.50;;;;;;5074928;28;19920;-62
2023/05/18 10:37:05;;;;;;;;;;;20.50;41.60;;;;;;5080936;28;19927;-62
2023/05/18 10:39:34;;;;;;;;;;;20.50;41.50;;;;;;5083348;28;19974;-62
2023/05/18 10:42:01;;;;;;;;;;;20.50;41.50;;;;;;5067770;28;19924;-62
2023/05/18 10:44:27;;;;;;;;;;;20.50;41.60;;;;;;5077619;28;19972;-62
2023/05/18 10:46:54;;;;;;;;;;;20.50;41.50;;;;;;5052933;28;19920;-62
2023/05/18 10:49:24;;;;;;;;;;;20.50;41.60;;;;;;5073019;28;19970;-62
2023/05/18 10:51:52;;;;;;;;;;;20.50;41.60;;;;;;5074345;28;19932;-62
2023/05/18 10:54:18;;;;;;;;;;;20.50;41.60;;;;;;5072755;28;19928;-63
2023/05/18 10:56:49;;;;;;;;;;;20.50;41.60;;;;;;5072743;28;19927;-62
2023/05/18 10:59:17;;;;;;;;;;;20.50;41.60;;;;;;5074082;28;19935;-62
2023/05/18 11:01:43;;;;;;;;;;;20.50;41.60;;;;;;5073504;28;19920;-63
2023/05/18 11:04:11;;;;;;;;;;;20.50;41.60;;;;;;5072499;28;20027;-62
2023/05/18 11:06:39;;;;;;;;;;;20.50;41.60;;;;;;5073171;28;20400;-62
2023/05/18 11:09:08;;;;;;;;;;;20.50;41.60;;;;;;5075972;28;19920;-63
2023/05/18 11:11:49;;;;;;;;;;;20.50;42.20;;;;;;5075937;28;20316;-62
2023/05/18 11:14:17;;;;;;;;;;;20.50;41.60;;;;;;5076930;28;19920;-62
2023/05/18 11:16:44;;;;;;;;;;;20.50;41.60;;;;;;5075290;28;19920;-62
2023/05/18 11:19:11;;;;;;;;;;;20.50;41.70;;;;;;5072882;28;20412;-62
2023/05/18 11:21:52;;;;;;;;;;;20.50;41.60;;;;;;5072609;28;19970;-62
2023/05/18 11:24:20;;;;;;;;;;;20.50;41.70;;;;;;5073705;28;20013;-63
2023/05/18 11:26:47;;;;;;;;;;;20.50;41.70;;;;;;5073226;28;19921;-62
2023/05/18 11:29:21;;;;;;;;;;;20.50;41.70;;;;;;5055491;28;19924;-63
2023/05/18 11:31:49;;;;;;;;;;;20.60;41.80;;;;;;5072582;28;19955;-62
2023/05/18 11:34:34;;;;;;;;;;;20.60;41.80;;;;;;5076085;28;19920;-62
2023/05/18 11:37:01;;;;;;;;;;;20.60;41.80;;;;;;5074993;28;19969;-62
2023/05/18 11:39:28;;;;;;;;;;;20.60;41.80;;;;;;5093483;28;19967;-62
2023/05/18 11:42:05;;;;;;;;;;;20.60;41.80;;;;;;5093356;28;19920;-63
2023/05/18 11:44:33;;;;;;;;;;;20.60;41.80;;;;;;5093379;28;20008;-63
2023/05/18 11:47:01;;;;;;;;;;;20.60;41.90;;;;;;5090195;28;19924;-62
2023/05/18 11:49:29;;;;;;;;;;;20.60;41.90;;;;;;5077495;28;19920;-62
2023/05/18 11:52:11;;;;;;;;;;;20.60;41.90;;;;;;5072512;28;19920;-62
2023/05/18 11:54:42;;;;;;;;;;;20.60;41.90;;;;;;5086531;28;19919;-62
2023/05/18 11:57:08;;;;;;;;;;;20.60;41.90;;;;;;5090033;28;19970;-62
2023/05/18 11:59:41;;;;;;;;;;;20.60;41.90;;;;;;5076158;28;19924;-63
2023/05/18 12:02:10;;;;;;;;;;;20.60;41.90;;;;;;5062864;28;19924;-61
2023/05/18 12:04:45;;;;;;;;;;;20.60;41.90;;;;;;5094686;28;19927;-62
2023/05/18 12:07:12;;;;;;;;;;;20.60;41.90;;;;;;5084914;28;19929;-62
2023/05/18 12:09:40;;;;;;;;;;;20.60;41.90;;;;;;5072919;28;19921;-63
2023/05/18 12:12:10;;;;;;;;;;;20.60;41.90;;;;;;5081568;28;19920;-62
2023/05/18 12:14:38;;;;;;;;;;;20.60;42.00;;;;;;5078877;28;19966;-62
2023/05/18 12:17:06;;;;;;;;;;;20.60;41.90;;;;;;5080085;28;19920;-62
2023/05/18 12:19:36;;;;;;;;;;;20.60;41.90;;;;;;5078303;28;19965;-62
2023/05/18 12:22:05;;;;;;;;;;;20.60;41.90;;;;;;5077163;28;19970;-63
2023/05/18 12:24:34;;;;;;;;;;;20.60;41.90;;;;;;5093421;28;20018;-62
2023/05/18 12:27:03;;;;;;;;;;;20.60;42.00;;;;;;5097860;28;19969;-62
2023/05/18 12:29:30;;;;;;;;;;;20.60;42.00;;;;;;5096593;28;19920;-62
2023/05/18 12:31:58;;;;;;;;;;;20.60;42.00;;;;;;5094214;28;19920;-62
2023/05/18 12:34:27;;;;;;;;;;;20.60;42.00;;;;;;5074418;28;19947;-62
2023/05/18 12:36:54;;;;;;;;;;;20.60;41.90;;;;;;5077465;28;19974;-62
2023/05/18 12:39:21;;;;;;;;;;;20.60;42.00;;;;;;5088005;28;20015;-62
2023/05/18 12:41:51;;;;;;;;;;;20.60;41.90;;;;;;5076321;28;19919;-63
2023/05/18 12:44:18;;;;;;;;;;;20.60;41.90;;;;;;5097674;28;19942;-63
2023/05/18 12:46:44;;;;;;;;;;;20.60;42.00;;;;;;5076197;28;19993;-63
2023/05/18 12:49:12;;;;;;;;;;;20.60;42.00;;;;;;5091025;28;19920;-62
2023/05/18 12:51:39;;;;;;;;;;;20.60;42.00;;;;;;5094584;28;20270;-62
2023/05/18 12:54:06;;;;;;;;;;;20.60;42.00;;;;;;5084442;28;19920;-62
2023/05/18 12:56:50;;;;;;;;;;;20.60;42.00;;;;;;5077036;28;19974;-63
2023/05/18 12:59:19;;;;;;;;;;;20.60;42.00;;;;;;5076493;28;19943;-63
2023/05/18 13:01:46;;;;;;;;;;;20.60;42.00;;;;;;5058328;28;19920;-63
2023/05/18 13:04:14;;;;;;;;;;;20.60;42.00;;;;;;5074903;28;19966;-63
2023/05/18 13:06:41;;;;;;;;;;;20.60;42.00;;;;;;5092602;28;19920;-62
2023/05/18 13:09:08;;;;;;;;;;;20.60;42.00;;;;;;5098923;28;19955;-63
2023/05/18 13:11:35;;;;;;;;;;;20.60;42.00;;;;;;5098626;28;19924;-63
2023/05/18 13:14:03;;;;;;;;;;;20.60;42.00;;;;;;5094812;28;19924;-62
2023/05/18 13:16:29;;;;;;;;;;;20.60;42.00;;;;;;5078347;28;19920;-63
2023/05/18 13:18:57;;;;;;;;;;;20.60;42.00;;;;;;5070031;28;19923;-63
2023/05/18 13:21:25;;;;;;;;;;;20.60;42.00;;;;;;5095012;28;19919;-64
2023/05/18 13:23:52;;;;;;;;;;;20.60;42.00;;;;;;5069745;28;19924;-64
2023/05/18 13:26:20;;;;;;;;;;;20.60;42.00;;;;;;5058615;28;19970;-63
2023/05/18 13:28:47;;;;;;;;;;;20.60;42.00;;;;;;5057794;28;20078;-62
2023/05/18 13:31:14;;;;;;;;;;;20.60;42.00;;;;;;5076609;28;19921;-65
2023/05/18 13:33:41;;;;;;;;;;;20.60;42.00;;;;;;5076442;28;19929;-62
2023/05/18 13:36:08;;;;;;;;;;;20.60;42.00;;;;;;5076680;28;19921;-64
2023/05/18 13:38:36;;;;;;;;;;;20.60;42.00;;;;;;5075249;28;20426;-62
2023/05/18 13:41:04;;;;;;;;;;;20.60;42.10;;;;;;5075271;28;19939;-63
2023/05/18 13:43:30;;;;;;;;;;;20.60;42.10;;;;;;5066855;28;19920;-62
2023/05/18 13:45:57;;;;;;;;;;;20.60;42.10;;;;;;5070779;28;19966;-62
2023/05/18 13:48:24;;;;;;;;;;;20.60;42.10;;;;;;5073042;28;19920;-62
2023/05/18 13:50:50;;;;;;;;;;;20.60;42.10;;;;;;5079153;28;20251;-62
2023/05/18 13:53:17;;;;;;;;;;;20.60;42.10;;;;;;5091013;28;19920;-62
2023/05/18 13:55:45;;;;;;;;;;;20.60;42.10;;;;;;5088911;28;20021;-62
2023/05/18 13:58:12;;;;;;;;;;;20.60;42.10;;;;;;5092588;28;19928;-62
2023/05/18 14:00:39;;;;;;;;;;;20.60;42.10;;;;;;5073613;28;19920;-62
2023/05/18 14:03:07;;;;;;;;;;;20.60;42.10;;;;;;5077001;28;19969;-62
2023/05/18 14:05:34;;;;;;;;;;;20.60;42.10;;;;;;5074482;28;20285;-62
2023/05/18 14:08:01;;;;;;;;;;;20.60;42.10;;;;;;5092062;28;19965;-63
2023/05/18 14:10:28;;;;;;;;;;;20.60;42.10;;;;;;5082875;28;19920;-60
2023/05/18 14:12:56;;;;;;;;;;;20.60;42.10;;;;;;5092180;28;19924;-61
2023/05/18 14:15:23;;;;;;;;;;;20.60;42.10;;;;;;5090775;28;19924;-61
2023/05/18 14:17:49;;;;;;;;;;;20.60;42.10;;;;;;5091723;28;19924;-62
2023/05/18 14:20:16;;;;;;;;;;;20.60;42.10;;;;;;5089708;28;19924;-62